Time;durP1;ratioP1;P1;durP2;ratioP2;P2;SDS_P1;SDS_P2;PMS_P1;PMS_P2;Temp;Humidity;BMP_temperature;BMP_pressure;BME280_temperature;BME280_humidity;BME280_pressure;Samples;Min_cycle;Max_cycle;Signal;HPM_P1;HPM_P2
2023/08/30 00:02:18;;;;;;;8.60;5.35;;;16.50;88.10;;;;;;5116616;28;20034;-80
2023/08/30 00:04:44;;;;;;;8.77;5.55;;;16.50;88.30;;;;;;5115555;28;20020;-81
2023/08/30 00:07:10;;;;;;;8.70;5.25;;;16.40;88.20;;;;;;5115503;28;20046;-80
2023/08/30 00:09:36;;;;;;;8.32;5.47;;;16.30;88.50;;;;;;5098874;28;20020;-80
2023/08/30 00:12:03;;;;;;;10.43;5.78;;;16.20;88.60;;;;;;5098502;28;20036;-80
2023/08/30 00:14:29;;;;;;;9.82;5.85;;;16.20;88.80;;;;;;5098390;28;20028;-80
2023/08/30 00:16:54;;;;;;;9.98;6.10;;;16.20;88.90;;;;;;5115405;28;20032;-80
2023/08/30 00:19:20;;;;;;;12.52;5.85;;;16.20;88.90;;;;;;5116332;28;20055;-80
2023/08/30 00:21:46;;;;;;;10.27;6.10;;;16.30;88.80;;;;;;5115253;28;20021;-80
2023/08/30 00:24:11;;;;;;;9.77;5.88;;;16.30;88.70;;;;;;5115124;28;20031;-80
2023/08/30 00:26:37;;;;;;;9.05;5.13;;;16.30;88.40;;;;;;5098273;28;20034;-81
2023/08/30 00:29:03;;;;;;;11.70;5.68;;;16.30;88.30;;;;;;5115990;28;20027;-81
2023/08/30 00:31:28;;;;;;;9.10;5.25;;;16.30;88.50;;;;;;5081516;28;20024;-80
2023/08/30 00:33:54;;;;;;;10.88;6.07;;;16.30;88.40;;;;;;5098167;28;20035;-80
2023/08/30 00:36:20;;;;;;;10.52;5.85;;;16.30;88.60;;;;;;5081147;28;20036;-81
2023/08/30 00:38:46;;;;;;;8.20;5.22;;;16.30;88.60;;;;;;5116099;28;20039;-81
2023/08/30 00:41:11;;;;;;;9.45;5.38;;;16.30;88.50;;;;;;5115861;28;20060;-81
2023/08/30 00:43:37;;;;;;;10.30;5.20;;;16.30;88.40;;;;;;5114925;28;20027;-80
2023/08/30 00:46:03;;;;;;;10.07;5.68;;;16.30;88.10;;;;;;5118353;28;20813;-80
2023/08/30 00:48:29;;;;;;;12.05;6.00;;;16.30;87.90;;;;;;5101013;28;20056;-80
2023/08/30 00:50:55;;;;;;;10.23;5.68;;;16.20;87.70;;;;;;5084458;28;20032;-80
2023/08/30 00:53:20;;;;;;;12.15;6.00;;;16.20;87.60;;;;;;5117938;28;20038;-80
2023/08/30 00:55:46;;;;;;;9.10;5.22;;;16.10;88.00;;;;;;5117943;28;20030;-80
2023/08/30 00:58:12;;;;;;;9.05;5.85;;;16.10;88.50;;;;;;5084300;28;20028;-80
2023/08/30 01:00:38;;;;;;;10.50;5.53;;;16.10;88.40;;;;;;5117758;28;20054;-79
2023/08/30 01:03:05;;;;;;;10.80;5.88;;;16.00;88.10;;;;;;5118029;28;20032;-80
2023/08/30 01:05:31;;;;;;;9.43;5.80;;;15.90;88.40;;;;;;5117775;28;20023;-80
2023/08/30 01:07:57;;;;;;;9.68;5.60;;;15.80;89.50;;;;;;5117807;28;20032;-81
2023/08/30 01:10:59;;;;;;;8.88;5.57;;;15.80;88.80;;;;;;5100789;28;20032;-81
2023/08/30 01:13:27;;;;;;;11.33;5.80;;;15.80;88.80;;;;;;5062553;28;20058;-80
2023/08/30 01:15:54;;;;;;;11.02;6.20;;;15.80;88.70;;;;;;5100982;28;20020;-80
2023/08/30 01:18:23;;;;;;;9.32;5.80;;;15.90;88.70;;;;;;5100831;28;20023;-79
2023/08/30 01:20:52;;;;;;;9.50;6.18;;;15.90;88.40;;;;;;5135443;28;20028;-80
2023/08/30 01:23:40;;;;;;;10.80;6.30;;;15.80;88.20;;;;;;5100481;28;20091;-81
2023/08/30 01:26:14;;;;;;;10.70;6.35;;;15.80;88.20;;;;;;5117381;28;20080;-79
2023/08/30 01:28:40;;;;;;;9.80;6.00;;;15.70;88.50;;;;;;5117440;28;20047;-80
2023/08/30 01:31:09;;;;;;;8.88;5.80;;;15.70;88.70;;;;;;5083657;28;20039;-81
2023/08/30 01:33:36;;;;;;;11.07;6.55;;;15.80;88.80;;;;;;5135274;28;20016;-81
2023/08/30 01:36:03;;;;;;;9.85;5.85;;;15.80;88.90;;;;;;5100569;28;20028;-81
2023/08/30 01:38:30;;;;;;;11.27;6.43;;;15.80;88.80;;;;;;5135161;28;20024;-80
2023/08/30 01:40:57;;;;;;;9.68;5.68;;;15.70;88.80;;;;;;5117204;28;20073;-81
2023/08/30 01:43:28;;;;;;;10.98;6.65;;;15.60;88.90;;;;;;5134942;28;20019;-81
2023/08/30 01:45:56;;;;;;;9.50;6.00;;;15.50;89.20;;;;;;5134991;28;20016;-80
2023/08/30 01:48:23;;;;;;;10.02;6.18;;;15.30;89.80;;;;;;5100493;28;20040;-81
2023/08/30 01:50:49;;;;;;;11.05;6.10;;;15.30;90.00;;;;;;5117188;28;20027;-80
2023/08/30 01:53:15;;;;;;;10.05;5.72;;;15.30;90.10;;;;;;5134955;28;20027;-81
2023/08/30 01:55:42;;;;;;;10.02;6.07;;;15.30;90.10;;;;;;5116841;28;20458;-81
2023/08/30 01:58:08;;;;;;;9.75;5.95;;;15.40;90.10;;;;;;5100062;28;20031;-81
2023/08/30 02:00:35;;;;;;;9.73;6.00;;;15.50;89.90;;;;;;5116037;28;20034;-81
2023/08/30 02:03:10;;;;;;;14.45;6.68;;;15.50;89.60;;;;;;5134822;28;20023;-80
2023/08/30 02:05:39;;;;;;;14.52;6.60;;;15.50;89.40;;;;;;5116751;28;20031;-80
2023/08/30 02:08:13;;;;;;;9.48;5.80;;;15.40;89.40;;;;;;5134673;28;20060;-80
2023/08/30 02:10:42;;;;;;;12.18;7.00;;;15.30;89.20;;;;;;5116654;28;20023;-80
2023/08/30 02:13:12;;;;;;;11.27;6.38;;;15.20;89.30;;;;;;5134703;28;20019;-80
2023/08/30 02:15:41;;;;;;;11.60;6.43;;;15.10;89.30;;;;;;5099635;28;20051;-80
2023/08/30 02:18:08;;;;;;;10.68;6.97;;;14.90;90.10;;;;;;5134367;28;20030;-80
2023/08/30 02:20:33;;;;;;;11.05;6.43;;;14.90;90.40;;;;;;5134328;28;20092;-80
2023/08/30 02:22:59;;;;;;;11.45;6.65;;;14.70;90.60;;;;;;5099503;28;20024;-80
2023/08/30 02:25:25;;;;;;;10.55;6.68;;;14.60;90.90;;;;;;5082899;28;20025;-80
2023/08/30 02:27:51;;;;;;;10.40;6.55;;;14.60;91.10;;;;;;5116396;28;20027;-81
2023/08/30 02:30:17;;;;;;;10.77;6.78;;;14.50;91.20;;;;;;5116478;28;20050;-81
2023/08/30 02:32:43;;;;;;;11.98;6.90;;;14.40;91.50;;;;;;5099373;28;20024;-80
2023/08/30 02:35:08;;;;;;;12.20;6.35;;;14.40;91.60;;;;;;5116222;28;20028;-80
2023/08/30 02:37:34;;;;;;;11.75;6.75;;;14.30;91.70;;;;;;5134058;28;20035;-80
2023/08/30 02:40:00;;;;;;;12.75;7.18;;;14.40;91.80;;;;;;5099274;28;20046;-80
2023/08/30 02:42:26;;;;;;;12.23;6.53;;;14.40;91.80;;;;;;5116468;28;20050;-80
2023/08/30 02:44:52;;;;;;;10.90;6.65;;;14.40;91.80;;;;;;5116093;28;20404;-80
2023/08/30 02:47:18;;;;;;;11.13;6.80;;;14.40;91.70;;;;;;5099166;28;20052;-80
2023/08/30 02:49:44;;;;;;;10.45;6.60;;;14.40;91.70;;;;;;5116068;28;20028;-80
2023/08/30 02:52:09;;;;;;;12.85;6.57;;;14.40;91.80;;;;;;5116030;28;20048;-80
2023/08/30 02:54:35;;;;;;;9.40;6.28;;;14.50;91.70;;;;;;5134061;28;20020;-80
2023/08/30 02:57:00;;;;;;;10.90;6.30;;;14.50;91.40;;;;;;5099322;28;20432;-80
2023/08/30 02:59:26;;;;;;;10.18;6.38;;;14.60;91.50;;;;;;5116082;28;20034;-80
2023/08/30 03:01:53;;;;;;;11.68;6.45;;;14.60;91.40;;;;;;5082324;28;20119;-80
2023/08/30 03:04:18;;;;;;;10.73;6.30;;;14.70;91.30;;;;;;5116080;28;20050;-80
2023/08/30 03:06:44;;;;;;;10.75;6.00;;;14.80;91.10;;;;;;5082467;28;20016;-80
2023/08/30 03:09:10;;;;;;;10.48;6.45;;;14.90;91.00;;;;;;5133884;28;20483;-80
2023/08/30 03:11:35;;;;;;;10.38;5.53;;;15.00;90.90;;;;;;5082790;28;20041;-81
2023/08/30 03:14:01;;;;;;;10.32;6.30;;;15.00;90.80;;;;;;5102975;28;20027;-80
2023/08/30 03:16:26;;;;;;;11.10;5.60;;;15.10;90.60;;;;;;5086237;28;20031;-80
2023/08/30 03:18:52;;;;;;;10.25;6.00;;;15.10;90.50;;;;;;5119723;28;20111;-80
2023/08/30 03:21:18;;;;;;;8.70;5.45;;;15.10;90.40;;;;;;5119762;28;20031;-80
2023/08/30 03:23:43;;;;;;;13.00;6.35;;;15.10;90.30;;;;;;5103036;28;20016;-80
2023/08/30 03:26:14;;;;;;;11.75;6.30;;;15.10;90.30;;;;;;5137755;28;20359;-80
2023/08/30 03:28:41;;;;;;;11.77;6.80;;;15.10;90.20;;;;;;5120597;28;20079;-80
2023/08/30 03:31:21;;;;;;;9.02;6.00;;;15.10;90.20;;;;;;5137630;28;20020;-80
2023/08/30 03:33:49;;;;;;;11.30;6.75;;;15.20;90.10;;;;;;5102715;28;20099;-80
2023/08/30 03:36:17;;;;;;;9.50;5.97;;;15.20;90.20;;;;;;5102680;28;20098;-81
2023/08/30 03:38:43;;;;;;;9.02;5.55;;;15.20;90.20;;;;;;5119393;28;20036;-80
2023/08/30 03:41:11;;;;;;;11.25;6.65;;;15.20;90.20;;;;;;5085954;28;20038;-80
2023/08/30 03:43:36;;;;;;;11.82;6.47;;;15.20;90.30;;;;;;5119386;28;20028;-80
2023/08/30 03:46:05;;;;;;;11.13;6.68;;;15.20;90.40;;;;;;5102403;28;20051;-80
2023/08/30 03:48:32;;;;;;;11.13;6.50;;;15.20;90.30;;;;;;5102613;28;20043;-80
2023/08/30 03:50:58;;;;;;;10.63;6.22;;;15.20;90.40;;;;;;5137296;28;20027;-80
2023/08/30 03:53:24;;;;;;;12.35;6.57;;;15.20;90.40;;;;;;5102305;28;20035;-80
2023/08/30 03:55:50;;;;;;;9.75;6.25;;;15.10;90.40;;;;;;5102375;28;20026;-79
2023/08/30 03:58:16;;;;;;;14.27;7.32;;;15.10;90.50;;;;;;5119187;28;20031;-80
2023/08/30 04:00:41;;;;;;;12.20;6.45;;;15.10;90.60;;;;;;5119147;28;20028;-81
2023/08/30 04:03:09;;;;;;;10.02;6.20;;;15.10;90.60;;;;;;5102169;28;20036;-81
2023/08/30 04:05:38;;;;;;;12.68;6.40;;;15.10;90.80;;;;;;5118979;28;20020;-80
2023/08/30 04:08:05;;;;;;;9.27;6.35;;;15.10;90.80;;;;;;5118837;28;20091;-80
2023/08/30 04:10:39;;;;;;;10.10;6.30;;;15.10;90.70;;;;;;5118814;28;20045;-80
2023/08/30 04:13:07;;;;;;;11.68;6.43;;;15.00;90.60;;;;;;5136899;28;20100;-80
2023/08/30 04:15:34;;;;;;;9.88;6.15;;;15.00;90.60;;;;;;5118560;28;20031;-80
2023/08/30 04:17:59;;;;;;;10.45;6.88;;;14.90;90.70;;;;;;5085153;28;20034;-80
2023/08/30 04:20:25;;;;;;;11.48;6.75;;;15.00;90.80;;;;;;5118684;28;20051;-80
2023/08/30 04:22:51;;;;;;;11.98;6.90;;;14.90;90.70;;;;;;5118075;28;20020;-80
2023/08/30 04:25:16;;;;;;;15.40;7.10;;;14.80;90.80;;;;;;5118492;28;20038;-80
2023/08/30 04:27:42;;;;;;;10.57;6.68;;;14.80;91.00;;;;;;5118483;28;20057;-80
2023/08/30 04:30:10;;;;;;;9.52;6.72;;;14.80;91.00;;;;;;5084931;28;20028;-80
2023/08/30 04:32:36;;;;;;;11.45;6.72;;;14.80;91.00;;;;;;5118504;28;20077;-80
2023/08/30 04:35:02;;;;;;;11.18;7.20;;;14.80;91.10;;;;;;5101438;28;20023;-79
2023/08/30 04:37:33;;;;;;;13.95;7.60;;;14.80;91.10;;;;;;5101519;28;20510;-80
2023/08/30 04:39:59;;;;;;;14.20;7.10;;;14.70;91.20;;;;;;5118436;28;20036;-80
2023/08/30 04:42:25;;;;;;;13.18;7.65;;;14.60;91.40;;;;;;5101296;28;20055;-80
2023/08/30 04:44:52;;;;;;;12.00;7.20;;;14.60;91.50;;;;;;5118171;28;20028;-80
2023/08/30 04:47:17;;;;;;;13.48;7.32;;;14.50;91.70;;;;;;5114487;28;20040;-80
2023/08/30 04:49:43;;;;;;;14.88;7.65;;;14.60;91.70;;;;;;5115755;28;20070;-81
2023/08/30 04:52:09;;;;;;;14.70;8.05;;;14.60;91.80;;;;;;5114754;28;20050;-81
2023/08/30 04:54:34;;;;;;;13.23;7.57;;;14.60;91.80;;;;;;5097751;28;20036;-81
2023/08/30 04:57:00;;;;;;;14.65;8.23;;;14.70;92.10;;;;;;5097806;28;20091;-82
2023/08/30 04:59:25;;;;;;;14.40;8.05;;;14.70;91.80;;;;;;5114415;28;20036;-81
2023/08/30 05:01:51;;;;;;;14.45;8.68;;;14.70;91.80;;;;;;5097609;28;20029;-81
2023/08/30 05:04:17;;;;;;;16.30;8.95;;;14.70;91.90;;;;;;5097892;28;20020;-82
2023/08/30 05:06:43;;;;;;;18.30;9.35;;;14.70;92.10;;;;;;5097872;28;20020;-82
2023/08/30 05:09:09;;;;;;;16.15;8.85;;;14.70;92.30;;;;;;5097530;28;20097;-81
2023/08/30 05:11:34;;;;;;;17.88;9.30;;;14.60;92.40;;;;;;5080814;28;20042;-82
2023/08/30 05:14:00;;;;;;;15.77;9.15;;;14.60;92.60;;;;;;5114766;28;20032;-82
2023/08/30 05:16:26;;;;;;;17.95;9.20;;;14.60;92.70;;;;;;5114841;28;20038;-81
2023/08/30 05:18:51;;;;;;;16.30;9.50;;;14.60;92.90;;;;;;5097488;28;20020;-81
2023/08/30 05:21:17;;;;;;;15.65;8.95;;;14.60;93.00;;;;;;5097143;28;20398;-81
2023/08/30 05:23:44;;;;;;;16.60;9.80;;;14.70;93.10;;;;;;5114075;28;20087;-81
2023/08/30 05:26:12;;;;;;;20.20;10.38;;;14.70;93.20;;;;;;5097409;28;20020;-81
2023/08/30 05:28:38;;;;;;;19.73;10.18;;;14.70;93.50;;;;;;5115102;28;20040;-81
2023/08/30 05:31:05;;;;;;;17.67;9.77;;;14.70;93.60;;;;;;5114862;28;20028;-81
2023/08/30 05:33:31;;;;;;;17.42;9.27;;;14.70;93.60;;;;;;5114826;28;20024;-81
2023/08/30 05:35:56;;;;;;;15.07;9.95;;;14.70;93.90;;;;;;5113982;28;20030;-81
2023/08/30 05:38:22;;;;;;;15.25;9.27;;;14.70;94.00;;;;;;5096721;28;20032;-81
2023/08/30 05:40:47;;;;;;;14.95;9.38;;;14.70;94.10;;;;;;5113728;28;20125;-82
2023/08/30 05:43:13;;;;;;;21.17;10.73;;;14.70;94.20;;;;;;5079981;28;20107;-81
2023/08/30 05:45:39;;;;;;;17.25;9.85;;;14.80;94.20;;;;;;5096746;28;20027;-81
2023/08/30 05:48:06;;;;;;;17.38;10.18;;;14.80;94.10;;;;;;5113458;28;20131;-82
2023/08/30 05:50:31;;;;;;;17.50;10.50;;;14.90;94.10;;;;;;5114526;28;20039;-81
2023/08/30 05:52:57;;;;;;;16.63;10.27;;;14.90;94.30;;;;;;5096715;28;20020;-81
2023/08/30 05:55:23;;;;;;;15.88;10.07;;;14.90;94.30;;;;;;5114389;28;20032;-81
2023/08/30 05:57:48;;;;;;;16.65;10.45;;;14.90;94.40;;;;;;5113438;28;20047;-81
2023/08/30 06:00:14;;;;;;;15.48;9.45;;;14.90;94.40;;;;;;5113339;28;20020;-81
2023/08/30 06:02:40;;;;;;;17.50;9.85;;;14.90;94.30;;;;;;5113530;28;20567;-80
2023/08/30 06:05:07;;;;;;;17.00;9.88;;;15.00;94.40;;;;;;5113372;28;20024;-81
2023/08/30 06:07:32;;;;;;;15.52;9.40;;;15.00;94.30;;;;;;5113257;28;20024;-81
2023/08/30 06:09:58;;;;;;;19.73;10.20;;;15.00;94.30;;;;;;5113149;28;20024;-80
2023/08/30 06:12:25;;;;;;;16.63;10.73;;;15.00;94.20;;;;;;5079583;28;20032;-81
2023/08/30 06:14:54;;;;;;;17.13;9.65;;;15.10;94.40;;;;;;5113108;28;20024;-81
2023/08/30 06:17:19;;;;;;;17.88;9.82;;;15.10;94.30;;;;;;5113105;28;20032;-81
2023/08/30 06:19:46;;;;;;;17.38;9.98;;;15.10;94.30;;;;;;5096255;28;20050;-81
2023/08/30 06:22:12;;;;;;;15.85;9.80;;;15.10;94.30;;;;;;5113898;28;20043;-81
2023/08/30 06:24:37;;;;;;;16.88;9.77;;;15.20;94.40;;;;;;5112996;28;20039;-80
2023/08/30 06:27:03;;;;;;;16.50;9.98;;;15.20;94.40;;;;;;5112842;28;20031;-81
2023/08/30 06:29:29;;;;;;;16.15;10.20;;;15.20;94.50;;;;;;5113029;28;20020;-82
2023/08/30 06:31:54;;;;;;;19.92;11.00;;;15.20;94.40;;;;;;5112953;28;20035;-81
2023/08/30 06:34:20;;;;;;;19.13;10.82;;;15.30;94.60;;;;;;5096145;28;20467;-82
2023/08/30 06:36:46;;;;;;;17.63;10.27;;;15.30;94.60;;;;;;5095912;28;20032;-81
2023/08/30 06:39:11;;;;;;;20.55;10.75;;;15.30;94.60;;;;;;5096110;28;20050;-82
2023/08/30 06:41:37;;;;;;;17.25;10.63;;;15.30;94.60;;;;;;5112803;28;20032;-81
2023/08/30 06:44:03;;;;;;;18.30;11.23;;;15.30;94.60;;;;;;5096086;28;20051;-80
2023/08/30 06:46:29;;;;;;;18.98;11.13;;;15.40;94.50;;;;;;5095752;28;20024;-81
2023/08/30 06:48:55;;;;;;;22.65;11.73;;;15.40;94.90;;;;;;5116113;28;20118;-81
2023/08/30 06:51:20;;;;;;;17.45;11.10;;;15.40;94.50;;;;;;5134137;28;20023;-81
2023/08/30 06:53:46;;;;;;;18.42;11.85;;;15.50;94.60;;;;;;5116074;28;20032;-81
2023/08/30 06:56:12;;;;;;;22.27;12.55;;;15.50;94.80;;;;;;5134215;28;20028;-80
2023/08/30 06:58:38;;;;;;;19.48;11.57;;;15.60;94.80;;;;;;5116063;28;20031;-82
2023/08/30 07:01:04;;;;;;;19.42;10.88;;;15.50;94.80;;;;;;5098986;28;20039;-81
2023/08/30 07:03:29;;;;;;;22.33;12.30;;;15.50;94.80;;;;;;5099135;28;20030;-82
2023/08/30 07:05:55;;;;;;;20.55;12.07;;;15.60;94.90;;;;;;5115968;28;20034;-81
2023/08/30 07:08:21;;;;;;;17.90;10.73;;;15.60;94.90;;;;;;5098827;28;20023;-82
2023/08/30 07:10:47;;;;;;;20.08;11.38;;;15.60;94.80;;;;;;5133908;28;20032;-82
2023/08/30 07:13:12;;;;;;;15.98;10.88;;;15.70;95.10;;;;;;5115927;28;20032;-82
2023/08/30 07:15:42;;;;;;;19.15;11.40;;;15.70;94.80;;;;;;5133927;28;20028;-82
2023/08/30 07:18:09;;;;;;;18.05;11.27;;;15.70;94.80;;;;;;5134017;28;20024;-82
2023/08/30 07:20:36;;;;;;;20.23;11.30;;;15.70;94.70;;;;;;5099017;28;20023;-82
2023/08/30 07:23:02;;;;;;;18.48;10.30;;;15.70;94.90;;;;;;5115920;28;20041;-81
2023/08/30 07:25:30;;;;;;;20.80;10.60;;;15.70;94.80;;;;;;5133905;28;20027;-81
2023/08/30 07:27:56;;;;;;;20.20;10.88;;;15.70;95.00;;;;;;5115816;28;20012;-81
2023/08/30 07:30:22;;;;;;;14.43;9.90;;;15.60;95.10;;;;;;5098992;28;20016;-80
2023/08/30 07:32:48;;;;;;;18.80;10.15;;;15.60;95.20;;;;;;5115697;28;20053;-81
2023/08/30 07:35:13;;;;;;;14.57;8.45;;;15.60;95.30;;;;;;5098837;28;20096;-81
2023/08/30 07:37:39;;;;;;;17.75;10.02;;;15.50;95.50;;;;;;5098716;28;20058;-81
2023/08/30 07:40:05;;;;;;;17.40;8.75;;;15.50;95.50;;;;;;5133677;28;20024;-81
2023/08/30 07:42:31;;;;;;;14.95;8.18;;;15.50;95.60;;;;;;5115675;28;20027;-82
2023/08/30 07:44:56;;;;;;;15.93;8.68;;;15.50;95.70;;;;;;5082130;28;20521;-82
2023/08/30 07:47:22;;;;;;;15.63;8.50;;;15.50;95.80;;;;;;5098541;28;20055;-82
2023/08/30 07:49:47;;;;;;;17.58;8.73;;;15.50;96.00;;;;;;5098699;28;20024;-82
2023/08/30 07:52:14;;;;;;;14.82;8.63;;;15.50;95.90;;;;;;5098493;28;20028;-83
2023/08/30 07:54:40;;;;;;;13.35;8.00;;;15.40;96.00;;;;;;5099089;28;20024;-82
2023/08/30 07:57:06;;;;;;;16.50;8.85;;;15.40;96.00;;;;;;5133664;28;20031;-82
2023/08/30 07:59:36;;;;;;;15.60;8.60;;;15.40;96.10;;;;;;5119036;28;20038;-82
2023/08/30 08:02:03;;;;;;;16.10;8.90;;;15.40;96.20;;;;;;5119397;28;20036;-82
2023/08/30 08:04:29;;;;;;;14.35;8.40;;;15.40;96.50;;;;;;5102414;28;20038;-82
2023/08/30 08:06:55;;;;;;;17.08;9.00;;;15.30;96.40;;;;;;5137128;28;20039;-82
2023/08/30 08:09:21;;;;;;;16.70;8.77;;;15.30;96.60;;;;;;5102073;28;20043;-82
2023/08/30 08:11:49;;;;;;;16.98;9.10;;;15.30;96.60;;;;;;5119333;28;20027;-82
2023/08/30 08:14:15;;;;;;;17.90;9.40;;;15.30;96.60;;;;;;5119077;28;20024;-81
2023/08/30 08:16:40;;;;;;;17.45;9.85;;;15.40;96.80;;;;;;5101990;28;20114;-82
2023/08/30 08:19:07;;;;;;;15.88;9.40;;;15.30;96.90;;;;;;5101852;28;20030;-82
2023/08/30 08:21:34;;;;;;;13.63;8.82;;;15.40;96.90;;;;;;5101894;28;20034;-83
2023/08/30 08:24:00;;;;;;;18.00;8.80;;;15.30;97.10;;;;;;5119260;28;20039;-82
2023/08/30 08:26:26;;;;;;;16.77;9.35;;;15.30;97.20;;;;;;5118604;28;20024;-81
2023/08/30 08:28:51;;;;;;;15.48;9.05;;;15.20;97.60;;;;;;5136887;28;20053;-83
2023/08/30 08:31:17;;;;;;;16.65;8.68;;;15.20;97.70;;;;;;5101826;28;20016;-83
2023/08/30 08:33:43;;;;;;;13.98;8.25;;;15.30;97.80;;;;;;5118715;28;20034;-83
2023/08/30 08:36:09;;;;;;;12.40;7.80;;;15.20;97.90;;;;;;5118666;28;20028;-83
2023/08/30 08:38:35;;;;;;;13.75;7.78;;;15.30;98.00;;;;;;5118658;28;20083;-83
2023/08/30 08:41:06;;;;;;;15.05;8.88;;;15.30;98.00;;;;;;5118531;28;20027;-83
2023/08/30 08:43:34;;;;;;;13.23;8.10;;;15.30;98.10;;;;;;5118675;28;20061;-82
2023/08/30 08:46:00;;;;;;;13.75;7.80;;;15.30;98.20;;;;;;5101868;28;20027;-83
2023/08/30 08:48:28;;;;;;;12.80;7.63;;;15.30;98.30;;;;;;5101564;28;20051;-83
2023/08/30 08:50:56;;;;;;;11.85;6.50;;;15.20;98.50;;;;;;5118282;28;20020;-84
2023/08/30 08:53:22;;;;;;;11.23;7.00;;;15.20;98.40;;;;;;5118658;28;20632;-83
2023/08/30 08:55:49;;;;;;;10.60;6.40;;;15.30;98.60;;;;;;5084693;28;20040;-83
2023/08/30 08:58:15;;;;;;;10.38;6.18;;;15.30;98.50;;;;;;5101293;28;20027;-85
2023/08/30 09:00:44;;;;;;;7.32;5.05;;;15.30;98.60;;;;;;5117966;28;20015;-83
2023/08/30 09:03:11;;;;;;;11.15;5.07;;;15.30;98.70;;;;;;5118208;28;20099;-84
2023/08/30 09:05:40;;;;;;;7.10;4.32;;;15.30;98.70;;;;;;5101452;28;20039;-85
2023/08/30 09:08:08;;;;;;;8.80;5.10;;;15.20;98.90;;;;;;5118111;28;20058;-84
2023/08/30 09:10:35;;;;;;;6.60;4.38;;;15.30;98.90;;;;;;5135963;28;20049;-85
2023/08/30 09:13:01;;;;;;;8.55;5.50;;;15.30;99.00;;;;;;5118250;28;20050;-84
2023/08/30 09:15:34;;;;;;;7.97;4.22;;;15.40;99.00;;;;;;5117970;28;20073;-83
2023/08/30 09:18:00;;;;;;;7.50;4.30;;;15.30;99.00;;;;;;5100965;28;20047;-84
2023/08/30 09:20:25;;;;;;;6.45;4.57;;;15.30;99.10;;;;;;5118007;28;20045;-84
2023/08/30 09:22:51;;;;;;;8.25;4.60;;;15.30;99.20;;;;;;5101314;28;20008;-84
2023/08/30 09:25:27;;;;;;;6.30;4.03;;;15.30;99.20;;;;;;5117791;28;20083;-85
2023/08/30 09:28:00;;;;;;;10.48;4.15;;;15.30;99.20;;;;;;5118280;28;20023;-85
2023/08/30 09:30:27;;;;;;;7.47;5.03;;;15.20;99.50;;;;;;5118577;28;20027;-84
2023/08/30 09:33:00;;;;;;;8.18;4.70;;;15.30;99.60;;;;;;5118111;28;20020;-84
2023/08/30 09:35:26;;;;;;;6.32;4.00;;;15.40;99.40;;;;;;5119766;28;20031;-85
2023/08/30 09:37:52;;;;;;;6.72;3.95;;;15.30;99.50;;;;;;5100690;28;20031;-84
2023/08/30 09:40:21;;;;;;;7.18;4.82;;;15.30;99.70;;;;;;5117508;28;20020;-83
2023/08/30 09:42:48;;;;;;;7.72;4.93;;;15.40;99.70;;;;;;5101078;28;20024;-84
2023/08/30 09:45:22;;;;;;;8.98;5.00;;;15.40;99.80;;;;;;5117556;28;20039;-85
2023/08/30 09:47:51;;;;;;;7.97;4.95;;;15.40;99.80;;;;;;5117202;28;20050;-85
2023/08/30 09:50:21;;;;;;;8.38;4.72;;;15.60;99.90;;;;;;5100448;28;20100;-85
2023/08/30 09:52:48;;;;;;;8.63;4.72;;;15.60;99.90;;;;;;5117506;28;20034;-84
2023/08/30 09:55:15;;;;;;;8.18;4.97;;;15.60;99.90;;;;;;5117605;28;20019;-84
2023/08/30 09:57:43;;;;;;;8.52;5.50;;;15.60;99.90;;;;;;5117342;28;20040;-85
2023/08/30 10:00:12;;;;;;;8.75;5.40;;;15.70;99.90;;;;;;5135087;28;20075;-84
2023/08/30 10:02:41;;;;;;;10.05;5.40;;;15.80;99.90;;;;;;5117571;28;20023;-83
2023/08/30 10:05:08;;;;;;;9.43;6.35;;;15.80;99.90;;;;;;5135113;28;20035;-82
2023/08/30 10:07:37;;;;;;;10.75;6.40;;;15.80;99.90;;;;;;5116887;28;20019;-84
2023/08/30 10:10:04;;;;;;;10.98;6.35;;;15.90;99.90;;;;;;5117179;28;20030;-84
2023/08/30 10:12:32;;;;;;;9.68;5.30;;;15.90;99.90;;;;;;5100068;28;20024;-84
2023/08/30 10:14:58;;;;;;;8.25;5.55;;;15.90;99.90;;;;;;5135012;28;20023;-84
2023/08/30 10:17:28;;;;;;;8.40;5.20;;;15.90;99.90;;;;;;5134694;28;20102;-84
2023/08/30 10:19:55;;;;;;;9.57;5.50;;;15.90;99.90;;;;;;5116811;28;20054;-84
2023/08/30 10:22:21;;;;;;;9.18;6.13;;;15.90;99.90;;;;;;5116306;28;20023;-84
2023/08/30 10:24:54;;;;;;;7.55;5.07;;;15.90;99.90;;;;;;5117220;28;20003;-84
2023/08/30 10:27:21;;;;;;;7.93;5.10;;;16.00;99.90;;;;;;5116717;28;20000;-85
2023/08/30 10:29:50;;;;;;;7.57;5.18;;;15.90;99.90;;;;;;5134533;28;20084;-84
2023/08/30 10:32:21;;;;;;;7.93;5.47;;;15.90;99.90;;;;;;5116709;28;20020;-84
2023/08/30 10:34:52;;;;;;;12.23;6.63;;;16.00;99.90;;;;;;5116832;28;20028;-83
2023/08/30 10:37:26;;;;;;;8.68;5.63;;;16.10;99.90;;;;;;5134299;28;20027;-84
2023/08/30 10:39:52;;;;;;;9.65;5.93;;;16.20;99.90;;;;;;5116804;28;20031;-84
2023/08/30 10:42:22;;;;;;;10.60;6.13;;;16.30;99.90;;;;;;5099518;28;20080;-84
2023/08/30 10:45:05;;;;;;;11.35;7.10;;;16.50;99.90;;;;;;5116581;28;20016;-83
2023/08/30 10:47:35;;;;;;;9.45;6.30;;;16.70;99.90;;;;;;5115862;28;20107;-84
2023/08/30 10:50:05;;;;;;;10.77;6.63;;;16.90;99.90;;;;;;5100026;28;20016;-83
2023/08/30 10:52:31;;;;;;;11.02;6.38;;;17.00;99.90;;;;;;5134300;28;20045;-83
2023/08/30 10:55:09;;;;;;;9.40;6.72;;;17.20;99.90;;;;;;5116414;28;20091;-83
2023/08/30 10:57:36;;;;;;;10.82;7.10;;;17.30;99.90;;;;;;5116327;28;20031;-83
2023/08/30 11:00:09;;;;;;;12.10;6.90;;;17.30;99.00;;;;;;5099601;28;20024;-83
2023/08/30 11:02:37;;;;;;;9.90;6.72;;;17.40;99.10;;;;;;5099310;28;20027;-82
2023/08/30 11:05:05;;;;;;;9.43;6.63;;;17.50;98.70;;;;;;5134161;28;20039;-84
2023/08/30 11:07:31;;;;;;;9.30;6.85;;;17.60;98.80;;;;;;5134078;28;20020;-82
2023/08/30 11:09:57;;;;;;;10.00;6.28;;;17.70;97.80;;;;;;5116328;28;20034;-84
2023/08/30 11:12:23;;;;;;;10.05;6.35;;;17.80;97.70;;;;;;5099478;28;20038;-84
2023/08/30 11:14:49;;;;;;;11.15;6.43;;;17.90;98.20;;;;;;5099459;28;20035;-84
2023/08/30 11:17:18;;;;;;;10.65;6.50;;;18.00;97.50;;;;;;5134071;28;20024;-83
2023/08/30 11:19:45;;;;;;;11.02;6.93;;;18.10;97.50;;;;;;5133947;28;20028;-84
2023/08/30 11:22:12;;;;;;;11.88;8.48;;;18.20;98.00;;;;;;5133924;28;20016;-84
2023/08/30 11:24:38;;;;;;;11.48;7.20;;;18.20;96.70;;;;;;5099346;28;20046;-82
2023/08/30 11:27:04;;;;;;;9.43;6.63;;;18.20;96.10;;;;;;5115898;28;20083;-83
2023/08/30 11:29:30;;;;;;;12.05;7.40;;;18.10;96.10;;;;;;5099184;28;20043;-83
2023/08/30 11:31:55;;;;;;;11.07;7.30;;;18.00;96.10;;;;;;5082177;28;20510;-83
2023/08/30 11:34:24;;;;;;;12.23;6.95;;;18.00;96.40;;;;;;5137110;28;20071;-83
2023/08/30 11:36:53;;;;;;;9.23;6.28;;;18.00;96.40;;;;;;5119725;28;20016;-82
2023/08/30 11:39:20;;;;;;;8.98;6.22;;;18.00;96.50;;;;;;5119747;28;20467;-83
2023/08/30 11:41:46;;;;;;;11.80;6.70;;;18.00;96.50;;;;;;5102543;28;20028;-83
2023/08/30 11:44:12;;;;;;;11.68;6.55;;;17.90;96.40;;;;;;5086244;28;20045;-84
2023/08/30 11:46:38;;;;;;;10.63;6.50;;;17.90;96.30;;;;;;5119600;28;20038;-82
2023/08/30 11:49:04;;;;;;;8.85;5.78;;;17.90;96.30;;;;;;5119782;28;20087;-83
2023/08/30 11:51:31;;;;;;;8.85;4.90;;;17.90;96.20;;;;;;5119623;28;20100;-84
2023/08/30 11:53:57;;;;;;;7.22;4.65;;;18.00;96.00;;;;;;5119563;28;20016;-83
2023/08/30 11:56:23;;;;;;;10.18;5.25;;;18.10;95.50;;;;;;5119573;28;20401;-83
2023/08/30 11:58:49;;;;;;;7.88;4.65;;;18.10;95.00;;;;;;5119754;28;20031;-84
2023/08/30 12:01:15;;;;;;;11.45;4.60;;;18.20;94.90;;;;;;5102461;28;20118;-83
2023/08/30 12:03:41;;;;;;;8.48;4.93;;;18.40;94.50;;;;;;5102180;28;20023;-84
2023/08/30 12:06:12;;;;;;;7.70;4.78;;;18.50;94.30;;;;;;5102386;28;20031;-84
2023/08/30 12:08:37;;;;;;;8.52;4.97;;;18.60;94.30;;;;;;5119530;28;20019;-85
2023/08/30 12:11:03;;;;;;;7.90;4.63;;;18.60;93.80;;;;;;5119592;28;20049;-85
2023/08/30 12:13:32;;;;;;;9.85;5.07;;;18.70;93.60;;;;;;5119590;28;20027;-84
2023/08/30 12:15:58;;;;;;;12.40;4.85;;;18.70;93.30;;;;;;5137165;28;20023;-83
2023/08/30 12:18:27;;;;;;;11.35;5.53;;;19.00;93.80;;;;;;5102360;28;20031;-85
2023/08/30 12:20:53;;;;;;;7.40;4.22;;;19.10;94.10;;;;;;5119093;28;20000;-84
2023/08/30 12:23:29;;;;;;;5.97;4.05;;;19.20;92.80;;;;;;5137053;28;20044;-84
2023/08/30 12:26:00;;;;;;;9.35;4.10;;;19.20;92.30;;;;;;5103376;28;20008;-84
2023/08/30 12:28:27;;;;;;;6.30;3.97;;;19.20;91.60;;;;;;5118893;28;20047;-84
2023/08/30 12:30:54;;;;;;;7.25;4.50;;;19.20;92.00;;;;;;5118895;28;20020;-84
2023/08/30 12:33:20;;;;;;;6.65;3.65;;;19.20;92.10;;;;;;5084937;28;20043;-83
2023/08/30 12:35:45;;;;;;;9.00;3.80;;;19.30;91.80;;;;;;5118645;28;20045;-84
2023/08/30 12:38:29;;;;;;;9.75;4.20;;;19.30;91.40;;;;;;5136764;28;20115;-84